Jaslovské Bohunice, Slovensko

01:10 AM CET dna 01 November, 2014 (GMT +0100)
ITRNAVAM3 | Change Station
CLOSE
Current Station
Personal Weather Stations
Location: Malzenice, TRNAVA
Nad. výška:: 482 ft
Najbližšie meteo stanice

Elev 482 ft 48.45 °N, 17.67 °E | Updated 7 minutes ago

Mostly Cloudy
Prevažne zamračené
36.1 °F
Feels Like 36 °F
N
0.0
Vietor meniaci sa Vietor from VJV
Gusts 1.0 mph

Dnes
High -- | Low -- °F
--% Chance of Precip.
Yesterday
High -- | Low -- °F
Precip. -- in
6:34 AM 4:30 PM
Prvá štvrtina, 60% visible
Tlak 30.33 in
Viditeľnosť 2.2 mile
Oblačnost Prevažne zamračené 3500 ft
Pocitová teplota 36 °F
Rosný bod 35 °F
Vlhkosť 94%
Rainfall 0.00 in
Výška snehu Not available.
UV 0 out of 12
Pollen Not available.
Air Quality Not available.
Flu Activity Not available.
METAR LZIB 010000Z 36001KT 3500 BR BKN035 04/03 Q1027

More Conditions Fewer Conditions

Tlak 30.33 in
Viditeľnosť 2.2 mile
Oblačnost Prevažne zamračené 3500 ft
Pocitová teplota 36 °F
Rosný bod 35 °F
Vlhkosť 94%
Rainfall 0.00 in
Výška snehu Not available.
UV 0 out of 12
Pollen Not available.
Air Quality Not available.
Flu Activity Not available.
METAR LZIB 010000Z 36001KT 3500 BR BKN035 04/03 Q1027

More Conditions Fewer Conditions

10-Day Weather Forecast

Almanac

Astronómia

Nov. 01, 2014 Východ Západ
Aktuálny čas
Civil Twilight
Nautical Twilight
Astronomical Twilight
Mesiac
Length Of Visible Light
Dĺžka dňa
Tomorrow will be .
, % of the Moon is Illuminated

Today's Extremes

Country Highs Country Lows

Community

WunderPhotos

Upload Photos

1,766,788 photos uploaded!

WunderBlogs® & News

Nearby

Air Quality

  Air Quality AQ Index Pollutant
Not available.

Výska snehu

Station Depth Nad. výška:

Aktivita zemetrasenia

Mesto Distance Mag. Time & Date
Minimum magnitude displayed is 2.5.

Coastal Water Temperatures

Miesto Teplota

Najbližšie meteo stanice